Time;durP1;ratioP1;P1;durP2;ratioP2;P2;SDS_P1;SDS_P2;PMS_P1;PMS_P2;Temp;Humidity;BMP_temperature;BMP_pressure;BME280_temperature;BME280_humidity;BME280_pressure;Samples;Min_cycle;Max_cycle;Signal;HPM_P1;HPM_P2
2022/08/31 00:04:01;;;;;;;9.23;7.00;;;614.80;2432.00;;;;;;5069568;28;20063;-73
2022/08/31 00:06:32;;;;;;;12.07;7.82;;;614.80;2432.00;;;;;;5050972;28;20016;-75
2022/08/31 00:08:58;;;;;;;8.38;6.68;;;614.80;2432.00;;;;;;5048100;28;20129;-74
2022/08/31 00:11:29;;;;;;;8.82;7.70;;;614.80;2432.00;;;;;;5074538;28;20019;-74
2022/08/31 00:13:58;;;;;;;8.98;7.60;;;614.80;2432.00;;;;;;5074177;28;20459;-74
2022/08/31 00:16:25;;;;;;;11.00;7.63;;;614.50;2432.00;;;;;;5048100;28;20075;-74
2022/08/31 00:18:52;;;;;;;15.90;8.43;;;614.50;2432.00;;;;;;5074478;28;20024;-74
2022/08/31 00:21:19;;;;;;;8.70;7.60;;;614.50;2432.00;;;;;;5074401;28;20024;-74
2022/08/31 00:23:46;;;;;;;11.02;8.07;;;614.60;2432.00;;;;;;5074242;28;20028;-73
2022/08/31 00:26:11;;;;;;;10.88;7.35;;;614.60;2432.00;;;;;;5074097;28;20033;-74
2022/08/31 00:28:37;;;;;;;9.80;7.25;;;614.60;2432.00;;;;;;5047997;28;20039;-76
2022/08/31 00:31:03;;;;;;;11.57;8.43;;;614.40;2432.00;;;;;;5047550;28;20474;-74
2022/08/31 00:33:28;;;;;;;11.23;8.68;;;589.70;2432.00;;;;;;5056343;28;20020;-74
2022/08/31 00:35:54;;;;;;;9.75;8.75;;;589.60;2432.00;;;;;;5074021;28;20107;-74
2022/08/31 00:38:20;;;;;;;13.93;8.38;;;589.60;2432.00;;;;;;5074269;28;20009;-74
2022/08/31 00:40:46;;;;;;;16.40;9.18;;;589.60;2432.00;;;;;;5073932;28;20489;-74
2022/08/31 00:43:33;;;;;;;13.48;8.75;;;589.50;2432.00;;;;;;5047675;28;20012;-73
2022/08/31 00:45:59;;;;;;;10.38;8.65;;;589.60;2432.00;;;;;;5074109;28;20115;-74
2022/08/31 00:48:25;;;;;;;11.40;8.38;;;589.60;2432.00;;;;;;5073602;28;20068;-74
2022/08/31 00:50:51;;;;;;;11.93;8.20;;;589.50;2432.00;;;;;;5074081;28;20115;-74
2022/08/31 00:53:17;;;;;;;16.95;9.68;;;589.40;2432.00;;;;;;5073766;28;20153;-74
2022/08/31 00:55:43;;;;;;;11.50;8.75;;;589.30;2432.00;;;;;;5047107;28;20044;-74
2022/08/31 00:58:11;;;;;;;10.68;8.43;;;589.30;2432.00;;;;;;5049685;28;20048;-74
2022/08/31 01:00:40;;;;;;;9.88;8.45;;;589.20;2432.00;;;;;;5073556;28;20020;-74
2022/08/31 01:03:08;;;;;;;9.55;7.45;;;589.20;2432.00;;;;;;5073589;28;20025;-74
2022/08/31 01:05:35;;;;;;;12.77;8.57;;;589.20;2432.00;;;;;;5073566;28;20055;-74
2022/08/31 01:08:03;;;;;;;12.00;8.55;;;589.10;2432.00;;;;;;5044621;28;20029;-75
2022/08/31 01:10:35;;;;;;;10.32;8.57;;;589.00;2432.00;;;;;;5073371;28;20016;-74
2022/08/31 01:13:02;;;;;;;11.35;8.55;;;589.00;2432.00;;;;;;5073160;28;20060;-73
2022/08/31 01:15:30;;;;;;;15.35;9.15;;;589.00;2432.00;;;;;;5073387;28;20096;-74
2022/08/31 01:17:59;;;;;;;12.07;8.68;;;588.90;2432.00;;;;;;5073264;28;20611;-74
2022/08/31 01:20:34;;;;;;;9.45;8.43;;;589.00;2432.00;;;;;;5073393;28;20474;-74
2022/08/31 01:23:37;;;;;;;12.02;8.45;;;589.00;2432.00;;;;;;5052123;28;20025;-74
2022/08/31 01:26:04;;;;;;;10.77;8.35;;;589.00;2432.00;;;;;;4975347;28;20065;-73
2022/08/31 01:28:30;;;;;;;13.48;8.75;;;589.10;2432.00;;;;;;4991663;28;20457;-74
2022/08/31 01:31:08;;;;;;;13.90;8.98;;;589.20;2432.00;;;;;;4991574;28;20061;-74
2022/08/31 01:33:37;;;;;;;14.73;9.18;;;589.00;2432.00;;;;;;4970540;28;20030;-74
2022/08/31 01:36:05;;;;;;;13.65;8.55;;;589.10;2432.00;;;;;;4991747;28;20105;-73
2022/08/31 01:38:32;;;;;;;12.82;8.38;;;589.00;2432.00;;;;;;4991410;28;20216;-74
2022/08/31 01:41:02;;;;;;;14.55;8.57;;;589.00;2432.00;;;;;;4991720;28;20497;-74
2022/08/31 01:43:32;;;;;;;9.85;8.65;;;589.00;2432.00;;;;;;4991171;28;20065;-74
2022/08/31 01:46:02;;;;;;;15.05;8.55;;;589.00;2432.00;;;;;;4989631;28;20030;-73
2022/08/31 01:48:28;;;;;;;15.63;8.93;;;589.00;2432.00;;;;;;4991174;28;20042;-74
2022/08/31 01:50:54;;;;;;;11.05;8.63;;;589.10;2432.00;;;;;;4988293;28;20026;-74
2022/08/31 01:53:19;;;;;;;11.15;9.15;;;589.20;2432.00;;;;;;4990675;28;20105;-73
2022/08/31 01:55:45;;;;;;;16.10;8.80;;;589.30;2432.00;;;;;;4990813;28;20497;-74
2022/08/31 01:58:12;;;;;;;11.48;9.38;;;589.30;2432.00;;;;;;4991135;28;20023;-76
2022/08/31 02:00:38;;;;;;;15.75;9.40;;;589.30;2432.00;;;;;;4999750;28;20035;-73
2022/08/31 02:03:06;;;;;;;11.07;8.48;;;589.20;2432.00;;;;;;5072500;28;20059;-74
2022/08/31 02:05:34;;;;;;;13.20;9.52;;;589.10;2432.00;;;;;;5072277;28;20026;-74
2022/08/31 02:08:00;;;;;;;13.30;8.90;;;589.00;2432.00;;;;;;5072375;28;20047;-77
2022/08/31 02:10:26;;;;;;;14.07;9.05;;;589.00;2432.00;;;;;;5072194;28;20025;-74
2022/08/31 02:12:51;;;;;;;10.52;8.77;;;589.00;2432.00;;;;;;5072312;28;20036;-74
2022/08/31 02:15:18;;;;;;;9.85;8.60;;;589.00;2432.00;;;;;;5072237;28;20025;-74
2022/08/31 02:17:43;;;;;;;13.75;9.70;;;589.10;2432.00;;;;;;5072091;28;20024;-75
2022/08/31 02:20:12;;;;;;;12.35;8.95;;;589.20;2432.00;;;;;;5072158;28;20021;-73
2022/08/31 02:22:38;;;;;;;15.45;9.13;;;589.30;2432.00;;;;;;5069527;28;20017;-74
2022/08/31 02:25:04;;;;;;;12.95;9.68;;;589.30;2432.00;;;;;;5072041;28;20031;-76
2022/08/31 02:27:30;;;;;;;13.93;9.20;;;589.40;2432.00;;;;;;5071436;28;20091;-74
2022/08/31 02:29:56;;;;;;;10.48;9.05;;;589.30;2432.00;;;;;;5071651;28;20408;-74
2022/08/31 02:32:22;;;;;;;10.93;8.90;;;589.20;2432.00;;;;;;5071817;28;20081;-75
2022/08/31 02:34:48;;;;;;;13.63;9.57;;;589.30;2432.00;;;;;;5045462;28;20035;-74
2022/08/31 02:37:15;;;;;;;17.42;9.55;;;589.20;2432.00;;;;;;5071614;28;20486;-74
2022/08/31 02:39:41;;;;;;;11.68;9.80;;;589.30;2432.00;;;;;;5045574;28;20394;-74
2022/08/31 02:42:07;;;;;;;14.55;9.52;;;589.30;2432.00;;;;;;5045706;28;20027;-74
2022/08/31 02:44:33;;;;;;;15.85;8.93;;;589.30;2432.00;;;;;;5071258;28;20060;-74
2022/08/31 02:46:58;;;;;;;12.50;9.10;;;589.40;2432.00;;;;;;5059076;28;20025;-75
2022/08/31 02:49:24;;;;;;;18.17;9.70;;;589.40;2432.00;;;;;;5071490;28;20416;-74
2022/08/31 02:51:50;;;;;;;15.13;10.43;;;589.30;2432.00;;;;;;5071752;28;20021;-74
2022/08/31 02:54:16;;;;;;;12.82;9.60;;;589.10;2432.00;;;;;;5071194;28;20095;-74
2022/08/31 02:56:42;;;;;;;12.25;9.82;;;589.10;2432.00;;;;;;5070740;28;20047;-74
2022/08/31 02:59:08;;;;;;;12.90;8.95;;;589.20;2432.00;;;;;;5071184;28;20020;-73
2022/08/31 03:01:36;;;;;;;11.65;9.63;;;589.20;2432.00;;;;;;5044720;28;20085;-74
2022/08/31 03:04:02;;;;;;;12.93;9.75;;;589.00;2432.00;;;;;;5068871;28;20024;-74
2022/08/31 03:06:30;;;;;;;11.57;9.25;;;588.90;2432.00;;;;;;5071232;28;20023;-74
2022/08/31 03:08:58;;;;;;;15.07;10.13;;;588.90;2432.00;;;;;;5042329;28;20028;-74
2022/08/31 03:11:24;;;;;;;13.95;9.63;;;588.90;2432.00;;;;;;5071337;28;20017;-74
2022/08/31 03:13:50;;;;;;;13.75;10.60;;;588.90;2432.00;;;;;;5071347;28;20071;-74
2022/08/31 03:16:17;;;;;;;16.33;9.68;;;588.80;2432.00;;;;;;5070989;28;20417;-74
2022/08/31 03:18:44;;;;;;;12.30;10.13;;;588.90;2432.00;;;;;;5071310;28;20020;-74
2022/08/31 03:21:10;;;;;;;12.02;9.95;;;588.90;2432.00;;;;;;5044747;28;20436;-74
2022/08/31 03:23:37;;;;;;;11.55;10.32;;;589.00;2432.00;;;;;;5071057;28;20028;-76
2022/08/31 03:26:04;;;;;;;11.95;10.02;;;588.90;2432.00;;;;;;5071040;28;20020;-75
2022/08/31 03:28:31;;;;;;;13.88;9.77;;;589.00;2432.00;;;;;;5044646;28;20131;-74
2022/08/31 03:30:57;;;;;;;11.40;9.85;;;588.90;2432.00;;;;;;5070870;28;20093;-74
2022/08/31 03:33:23;;;;;;;20.73;10.52;;;588.90;2432.00;;;;;;5070999;28;20021;-73
2022/08/31 03:35:49;;;;;;;12.30;10.05;;;588.90;2432.00;;;;;;5071236;28;20027;-74
2022/08/31 03:38:16;;;;;;;11.93;9.82;;;588.90;2432.00;;;;;;5070978;28;20017;-74
2022/08/31 03:40:43;;;;;;;15.00;10.82;;;588.80;2432.00;;;;;;5073344;28;20052;-74
2022/08/31 03:43:10;;;;;;;12.13;10.40;;;564.10;2432.00;;;;;;5075026;28;20017;-74
2022/08/31 03:45:37;;;;;;;15.88;10.98;;;564.10;2432.00;;;;;;5075156;28;20181;-74
2022/08/31 03:48:05;;;;;;;16.98;9.88;;;564.10;2432.00;;;;;;5072249;28;20020;-74
2022/08/31 03:50:34;;;;;;;12.68;10.63;;;588.80;2432.00;;;;;;5074997;28;20104;-74
2022/08/31 03:53:03;;;;;;;21.63;11.30;;;564.10;2432.00;;;;;;5074962;28;20458;-74
2022/08/31 03:55:29;;;;;;;13.27;10.13;;;564.10;2432.00;;;;;;5074660;28;20041;-74
2022/08/31 03:57:55;;;;;;;14.25;10.13;;;564.10;2432.00;;;;;;5074968;28;20043;-73
2022/08/31 04:00:22;;;;;;;16.17;11.05;;;564.10;2432.00;;;;;;5074606;28;20428;-76
2022/08/31 04:02:48;;;;;;;13.75;10.82;;;564.10;2432.00;;;;;;5074883;28;20024;-77
2022/08/31 04:05:14;;;;;;;15.10;11.07;;;588.80;2432.00;;;;;;5056589;28;20058;-74
2022/08/31 04:07:40;;;;;;;17.10;11.85;;;564.00;2432.00;;;;;;5074757;28;20036;-74
2022/08/31 04:10:06;;;;;;;15.18;10.57;;;564.10;2432.00;;;;;;5048225;28;20033;-75
2022/08/31 04:12:33;;;;;;;18.38;10.93;;;;;;;;;;5048408;28;20064;-74
2022/08/31 04:14:59;;;;;;;18.23;10.75;;;564.10;2432.00;;;;;;5056542;28;20119;-74
2022/08/31 04:17:25;;;;;;;13.60;10.25;;;588.80;2432.00;;;;;;5074370;28;20055;-74
2022/08/31 04:19:51;;;;;;;15.98;10.82;;;564.10;2432.00;;;;;;5074649;28;20027;-74
2022/08/31 04:22:16;;;;;;;12.90;10.07;;;564.10;2432.00;;;;;;5050755;28;20035;-74
2022/08/31 04:24:42;;;;;;;19.20;11.10;;;588.80;2432.00;;;;;;5074236;28;20450;-74
2022/08/31 04:27:08;;;;;;;14.52;12.02;;;588.80;2432.00;;;;;;5074161;28;20078;-74
2022/08/31 04:29:34;;;;;;;13.70;11.27;;;588.80;2432.00;;;;;;5074105;28;20032;-78
2022/08/31 04:31:59;;;;;;;16.77;12.43;;;588.80;2432.00;;;;;;5074097;28;20016;-74
2022/08/31 04:34:25;;;;;;;17.50;11.57;;;588.80;2432.00;;;;;;5046973;28;20554;-73
2022/08/31 04:36:51;;;;;;;18.48;12.18;;;588.80;2432.00;;;;;;5072728;28;20030;-73
2022/08/31 04:39:17;;;;;;;14.35;11.73;;;588.90;2432.00;;;;;;5074223;28;20047;-74
2022/08/31 04:41:43;;;;;;;13.80;11.23;;;588.90;2432.00;;;;;;5073882;28;20032;-73
2022/08/31 04:44:10;;;;;;;16.13;11.98;;;564.10;2432.00;;;;;;5071199;28;20017;-74
2022/08/31 04:46:37;;;;;;;14.57;10.80;;;588.80;2432.00;;;;;;5073883;28;20091;-74
2022/08/31 04:49:03;;;;;;;22.98;11.98;;;588.80;2432.00;;;;;;5047587;28;20593;-73
2022/08/31 04:51:34;;;;;;;13.32;10.32;;;588.90;2432.00;;;;;;5044706;28;20408;-73
2022/08/31 04:54:00;;;;;;;18.25;11.85;;;588.90;2432.00;;;;;;5073533;28;20105;-73
2022/08/31 04:56:29;;;;;;;22.30;11.15;;;589.00;2432.00;;;;;;5047430;28;20132;-75
2022/08/31 04:59:03;;;;;;;16.13;11.13;;;588.90;2432.00;;;;;;5073672;28;20055;-74
2022/08/31 05:01:35;;;;;;;16.10;11.93;;;588.90;2432.00;;;;;;5052305;28;20028;-75
2022/08/31 05:04:02;;;;;;;15.25;11.23;;;589.00;2432.00;;;;;;5073701;28;20024;-74
2022/08/31 05:06:30;;;;;;;13.85;11.50;;;589.00;2432.00;;;;;;5073479;28;20033;-74
2022/08/31 05:08:59;;;;;;;17.30;12.60;;;589.00;2432.00;;;;;;5073545;28;20561;-74
2022/08/31 05:11:25;;;;;;;15.95;11.45;;;589.10;2432.00;;;;;;5073066;28;20028;-73
2022/08/31 05:13:52;;;;;;;14.82;10.32;;;589.10;2432.00;;;;;;5070906;28;20024;-74
2022/08/31 05:16:19;;;;;;;15.55;10.75;;;589.20;2432.00;;;;;;5049474;28;20494;-74
2022/08/31 05:18:47;;;;;;;24.30;15.88;;;589.20;2432.00;;;;;;5073975;28;20028;-74
2022/08/31 05:21:25;;;;;;;19.02;14.18;;;589.10;2432.00;;;;;;5073982;28;20107;-75
2022/08/31 05:23:52;;;;;;;17.40;12.52;;;589.00;2432.00;;;;;;5073789;28;20056;-75
2022/08/31 05:26:19;;;;;;;19.15;12.82;;;589.00;2432.00;;;;;;5073697;28;20550;-75
2022/08/31 05:28:47;;;;;;;15.93;12.10;;;589.00;2432.00;;;;;;5054696;28;20029;-75
2022/08/31 05:31:14;;;;;;;19.58;12.50;;;588.90;2432.00;;;;;;5072981;28;20474;-75
2022/08/31 05:33:40;;;;;;;19.25;11.35;;;588.90;2432.00;;;;;;5072978;28;20032;-78
2022/08/31 05:36:06;;;;;;;18.67;13.68;;;589.30;2432.00;;;;;;5054654;28;20025;-74
2022/08/31 05:38:33;;;;;;;13.48;11.32;;;588.90;2432.00;;;;;;5072872;28;20025;-75
2022/08/31 05:40:59;;;;;;;13.32;11.00;;;588.90;2432.00;;;;;;5072861;28;20027;-74
2022/08/31 05:43:26;;;;;;;16.88;11.77;;;589.10;2432.00;;;;;;5073238;28;20020;-75
2022/08/31 05:45:53;;;;;;;15.23;11.77;;;589.30;2432.00;;;;;;5073377;28;20020;-76
2022/08/31 05:48:20;;;;;;;15.40;11.77;;;589.30;2432.00;;;;;;5073458;28;20020;-77
2022/08/31 05:50:46;;;;;;;16.88;11.20;;;589.40;2432.00;;;;;;5073359;28;20051;-74
2022/08/31 05:53:12;;;;;;;15.65;10.57;;;589.60;2432.00;;;;;;5055411;28;20028;-74
2022/08/31 05:55:38;;;;;;;16.27;11.05;;;589.50;2432.00;;;;;;5072093;28;20047;-74
2022/08/31 05:58:04;;;;;;;15.55;11.77;;;589.60;2432.00;;;;;;5070432;28;20540;-74
2022/08/31 06:00:31;;;;;;;14.20;11.15;;;589.70;2432.00;;;;;;5072749;28;20020;-74
2022/08/31 06:02:57;;;;;;;14.73;11.77;;;589.70;2432.00;;;;;;5071518;28;20016;-76
2022/08/31 06:05:23;;;;;;;14.45;10.32;;;589.70;2432.00;;;;;;5072471;28;20078;-74
2022/08/31 06:07:49;;;;;;;12.88;10.65;;;614.40;2432.00;;;;;;5071467;28;20417;-78
2022/08/31 06:10:16;;;;;;;15.05;11.23;;;614.40;2432.00;;;;;;5046084;28;20035;-75
2022/08/31 06:12:43;;;;;;;15.38;10.88;;;614.40;2432.00;;;;;;5072340;28;20081;-74
2022/08/31 06:15:10;;;;;;;15.95;10.80;;;614.40;2432.00;;;;;;5069780;28;20032;-74
2022/08/31 06:17:36;;;;;;;14.55;11.23;;;614.50;2432.00;;;;;;5053712;28;20028;-74
2022/08/31 06:20:04;;;;;;;14.13;10.68;;;614.50;2432.00;;;;;;5045717;28;20028;-78
2022/08/31 06:22:33;;;;;;;13.13;10.48;;;614.50;2432.00;;;;;;5069770;28;20040;-77
2022/08/31 06:24:58;;;;;;;12.95;9.85;;;614.70;2432.00;;;;;;5071910;28;20021;-76
2022/08/31 06:27:26;;;;;;;14.20;10.23;;;614.70;2432.00;;;;;;5072011;28;20046;-77
2022/08/31 06:29:52;;;;;;;12.77;10.32;;;614.80;2432.00;;;;;;5071760;28;20037;-76
2022/08/31 06:32:19;;;;;;;11.65;10.07;;;614.80;2432.00;;;;;;5071940;28;20100;-76
2022/08/31 06:34:44;;;;;;;13.48;9.70;;;614.80;2432.00;;;;;;5071663;28;20020;-76
2022/08/31 06:37:11;;;;;;;15.50;10.43;;;614.90;2432.00;;;;;;5069222;28;20028;-78
2022/08/31 06:39:38;;;;;;;12.30;9.57;;;614.80;2432.00;;;;;;5043930;28;20020;-78
2022/08/31 06:42:04;;;;;;;12.63;8.95;;;614.80;2432.00;;;;;;5071622;28;20541;-76
2022/08/31 06:44:30;;;;;;;10.68;9.18;;;614.90;2432.00;;;;;;5053995;28;20482;-75
2022/08/31 06:46:56;;;;;;;14.43;10.07;;;615.00;2432.00;;;;;;5071406;28;20016;-78
2022/08/31 06:49:22;;;;;;;14.95;9.20;;;615.00;2432.00;;;;;;5071697;28;20225;-74
2022/08/31 06:51:49;;;;;;;10.95;9.10;;;615.10;2432.00;;;;;;5071463;28;20490;-77
2022/08/31 06:54:18;;;;;;;11.63;8.88;;;615.10;2432.00;;;;;;5072231;28;20042;-77
2022/08/31 06:56:44;;;;;;;12.65;9.77;;;615.20;2432.00;;;;;;5043152;28;20052;-76
2022/08/31 06:59:11;;;;;;;15.07;8.93;;;615.10;2432.00;;;;;;5046214;28;20123;-74
2022/08/31 07:01:38;;;;;;;14.63;9.73;;;615.30;2432.00;;;;;;5051888;28;20021;-75
2022/08/31 07:04:08;;;;;;;13.32;9.63;;;615.00;2432.00;;;;;;5051066;28;20123;-75
2022/08/31 07:06:36;;;;;;;15.10;9.48;;;615.30;2432.00;;;;;;5051286;28;20031;-74
2022/08/31 07:09:05;;;;;;;15.05;10.30;;;615.30;2432.00;;;;;;5049918;28;20032;-76
2022/08/31 07:11:37;;;;;;;12.35;9.35;;;615.30;2432.00;;;;;;5052303;28;20024;-73
2022/08/31 07:14:04;;;;;;;11.07;9.43;;;615.20;2432.00;;;;;;5050588;28;20025;-73
2022/08/31 07:16:30;;;;;;;11.52;8.45;;;615.30;2432.00;;;;;;5051418;28;20009;-75
2022/08/31 07:18:59;;;;;;;11.77;8.80;;;640.00;2432.00;;;;;;5051135;28;20032;-78
2022/08/31 07:21:29;;;;;;;16.38;8.40;;;615.30;2432.00;;;;;;5051144;28;20437;-75
2022/08/31 07:23:59;;;;;;;11.48;9.32;;;640.00;2432.00;;;;;;5050417;28;20024;-75
2022/08/31 07:26:39;;;;;;;12.02;9.50;;;640.20;2432.00;;;;;;5050891;28;20053;-74
2022/08/31 07:29:06;;;;;;;11.93;8.65;;;640.20;2432.00;;;;;;5049597;28;20479;-73
2022/08/31 07:31:42;;;;;;;11.93;8.50;;;640.40;2432.00;;;;;;5050828;28;20028;-74
2022/08/31 07:34:09;;;;;;;10.98;7.85;;;640.50;2432.00;;;;;;5050988;28;20474;-77
2022/08/31 07:42:08;;;;;;;10.23;6.40;;;666.20;2432.00;;;;;;5049065;28;20047;-78
2022/08/31 07:44:35;;;;;;;10.95;7.28;;;665.60;2432.00;;;;;;5050976;28;20016;-74
2022/08/31 07:47:01;;;;;;;14.30;7.13;;;665.90;2432.00;;;;;;5051434;28;20052;-76
2022/08/31 07:49:26;;;;;;;15.88;6.65;;;665.60;2432.00;;;;;;5044011;28;20103;-76
2022/08/31 07:51:54;;;;;;;8.10;6.43;;;665.60;2432.00;;;;;;5049434;28;20021;-77
2022/08/31 07:54:26;;;;;;;9.93;6.78;;;665.70;2432.00;;;;;;5050867;28;20025;-77
2022/08/31 07:57:02;;;;;;;8.05;6.57;;;665.90;2432.00;;;;;;5058068;28;20053;-75
2022/08/31 07:59:29;;;;;;;15.98;8.48;;;666.00;2432.00;;;;;;5067249;28;20025;-75
2022/08/31 08:01:55;;;;;;;11.85;8.45;;;665.90;2432.00;;;;;;5071511;28;20044;-75
2022/08/31 08:04:24;;;;;;;11.55;7.88;;;666.00;2432.00;;;;;;5071165;28;20490;-75
2022/08/31 08:06:54;;;;;;;17.23;10.25;;;666.00;2432.00;;;;;;5054246;28;20147;-75
2022/08/31 08:09:21;;;;;;;15.30;10.93;;;666.00;2432.00;;;;;;5071232;28;20029;-74
2022/08/31 08:11:48;;;;;;;16.23;11.82;;;666.00;2432.00;;;;;;5052910;28;20020;-78
2022/08/31 08:14:15;;;;;;;16.40;11.88;;;666.00;2432.00;;;;;;5070210;28;20030;-74
2022/08/31 08:16:41;;;;;;;19.73;14.10;;;666.00;2432.00;;;;;;5046619;28;20036;-74
2022/08/31 08:19:07;;;;;;;21.67;14.57;;;665.90;2432.00;;;;;;5070642;28;20024;-74
2022/08/31 08:21:32;;;;;;;19.23;13.55;;;665.90;2432.00;;;;;;5041254;28;20888;-75
2022/08/31 08:23:58;;;;;;;25.33;14.02;;;665.70;2432.00;;;;;;5067897;28;20359;-74
2022/08/31 08:26:24;;;;;;;28.30;14.48;;;665.90;2432.00;;;;;;5045780;28;20025;-75
2022/08/31 08:28:50;;;;;;;22.13;14.05;;;665.70;2432.00;;;;;;5075073;28;20047;-75
2022/08/31 08:31:18;;;;;;;25.10;13.63;;;665.90;2432.00;;;;;;5042067;28;20483;-75
2022/08/31 08:33:44;;;;;;;22.35;13.25;;;666.00;2432.00;;;;;;5047971;28;20033;-75
2022/08/31 08:36:11;;;;;;;20.05;12.98;;;666.00;2432.00;;;;;;5069788;28;20052;-76
2022/08/31 08:38:38;;;;;;;16.77;13.45;;;;;;;;;;5075186;28;20470;-75
2022/08/31 08:41:09;;;;;;;25.50;14.88;;;666.30;2432.00;;;;;;5043476;28;20081;-76
2022/08/31 08:43:39;;;;;;;21.00;13.00;;;666.40;2432.00;;;;;;5060691;28;20099;-76
2022/08/31 08:46:08;;;;;;;13.05;10.00;;;691.30;2432.00;;;;;;5074878;28;20020;-75
2022/08/31 08:48:39;;;;;;;13.57;8.27;;;691.30;2432.00;;;;;;5074320;28;20028;-74
2022/08/31 08:51:14;;;;;;;15.45;8.60;;;691.40;2432.00;;;;;;5074805;28;20036;-75
2022/08/31 08:53:42;;;;;;;14.73;8.98;;;691.40;2432.00;;;;;;5055727;28;20047;-74
2022/08/31 08:56:12;;;;;;;14.13;7.45;;;691.40;2432.00;;;;;;5065161;28;20056;-75
2022/08/31 08:58:42;;;;;;;11.45;7.72;;;691.50;2432.00;;;;;;5074488;28;20024;-75
2022/08/31 09:01:12;;;;;;;8.15;6.80;;;691.70;2432.00;;;;;;5074162;28;20024;-74
2022/08/31 09:04:12;;;;;;;10.13;7.00;;;691.80;2432.00;;;;;;5073370;28;20379;-75
2022/08/31 09:07:15;;;;;;;10.60;7.20;;;691.90;2432.00;;;;;;5071110;28;20032;-75
2022/08/31 09:09:59;;;;;;;13.70;7.50;;;692.00;2432.00;;;;;;4995781;28;20062;-75
2022/08/31 09:12:44;;;;;;;7.55;6.38;;;692.00;2432.00;;;;;;4976160;28;20031;-74
2022/08/31 09:15:37;;;;;;;11.13;6.75;;;716.80;2432.00;;;;;;4992692;28;20477;-75
2022/08/31 09:18:25;;;;;;;10.48;7.32;;;716.80;2432.00;;;;;;4992661;28;20030;-75
2022/08/31 09:21:22;;;;;;;9.75;6.60;;;716.90;2432.00;;;;;;4993586;28;20444;-75
2022/08/31 09:24:00;;;;;;;7.00;6.30;;;717.10;2432.00;;;;;;4988474;28;20042;-75
2022/08/31 09:26:27;;;;;;;7.68;6.15;;;717.20;2432.00;;;;;;4976092;28;20030;-74
2022/08/31 09:28:54;;;;;;;10.65;6.85;;;717.20;2432.00;;;;;;4994613;28;20030;-74
2022/08/31 09:31:33;;;;;;;7.38;5.97;;;717.40;2432.00;;;;;;4992819;28;20027;-75
2022/08/31 09:33:59;;;;;;;9.88;6.20;;;717.40;2432.00;;;;;;4996475;28;20034;-76
2022/08/31 09:36:39;;;;;;;7.65;6.43;;;717.50;2432.00;;;;;;4996156;28;20110;-75
2022/08/31 09:39:27;;;;;;;10.10;6.18;;;717.60;2432.00;;;;;;4977562;28;20018;-75
2022/08/31 09:41:59;;;;;;;10.57;6.45;;;742.50;2432.00;;;;;;4975005;28;20046;-76
2022/08/31 09:44:34;;;;;;;11.65;5.97;;;742.70;2432.00;;;;;;4994226;28;20034;-75
2022/08/31 09:47:04;;;;;;;11.00;6.38;;;742.80;2406.40;;;;;;5038586;28;20115;-75
2022/08/31 09:49:38;;;;;;;15.55;6.22;;;743.00;2304.00;;;;;;5043718;28;20466;-75
2022/08/31 09:55:24;;;;;;;12.23;7.00;;;768.00;2150.40;;;;;;4990795;28;20042;-74
2022/08/31 09:58:03;;;;;;;10.55;6.20;;;768.10;2176.00;;;;;;4991079;28;20429;-75
2022/08/31 10:00:41;;;;;;;8.23;6.05;;;768.20;2150.40;;;;;;4962194;28;20037;-74
2022/08/31 10:03:22;;;;;;;8.30;5.50;;;768.20;2099.20;;;;;;4988788;28;20023;-75
2022/08/31 10:05:50;;;;;;;9.30;6.25;;;768.40;2124.80;;;;;;4988243;28;20037;-75
2022/08/31 10:08:34;;;;;;;6.88;5.50;;;768.50;2099.20;;;;;;4991005;28;20097;-75
2022/08/31 10:11:11;;;;;;;8.73;6.18;;;768.70;1971.20;;;;;;4986696;28;20516;-75
2022/08/31 10:13:53;;;;;;;13.32;5.72;;;768.90;1920.00;;;;;;4974134;28;20050;-75
2022/08/31 10:16:29;;;;;;;9.30;5.85;;;793.70;1894.40;;;;;;4990040;28;20073;-75
2022/08/31 10:19:10;;;;;;;9.40;5.25;;;768.90;1766.40;;;;;;4990801;28;20042;-76
2022/08/31 10:21:58;;;;;;;6.55;5.10;;;768.90;1715.20;;;;;;4988003;28;20034;-74
2022/08/31 10:24:27;;;;;;;8.50;5.72;;;768.90;1792.00;;;;;;4990101;28;20026;-74
2022/08/31 10:27:06;;;;;;;6.93;5.85;;;794.00;1766.40;;;;;;4990235;28;20444;-74
2022/08/31 10:29:40;;;;;;;8.48;6.45;;;;;;;;;;4989720;28;20987;-74
2022/08/31 10:32:17;;;;;;;9.73;5.95;;;794.50;1792.00;;;;;;5020632;28;20478;-75
2022/08/31 10:35:06;;;;;;;8.00;5.40;;;794.50;1792.00;;;;;;5069731;28;20568;-74
2022/08/31 10:37:42;;;;;;;12.95;5.53;;;819.30;1740.80;;;;;;5070599;28;20024;-75
2022/08/31 10:40:31;;;;;;;8.15;5.80;;;819.40;1740.80;;;;;;5069806;28;20031;-77
2022/08/31 10:43:15;;;;;;;8.90;4.75;;;819.70;1740.80;;;;;;5071258;28;20398;-74
2022/08/31 10:45:44;;;;;;;9.98;5.07;;;819.80;1484.80;;;;;;5069101;28;20024;-74
2022/08/31 10:48:11;;;;;;;6.60;5.40;;;819.80;1510.40;;;;;;5071666;28;20431;-75
2022/08/31 10:51:07;;;;;;;7.28;4.50;;;819.80;1536.00;;;;;;5040341;28;20039;-75
2022/08/31 10:53:45;;;;;;;;;;;819.80;1510.40;;;;;;5072549;28;20112;-74
2022/08/31 10:56:14;;;;;;;7.72;4.45;;;819.90;1510.40;;;;;;5071819;28;20317;-77
2022/08/31 10:59:26;;;;;;;6.25;4.70;;;820.00;1510.40;;;;;;5062891;28;20025;-76
2022/08/31 11:02:00;;;;;;;8.70;5.38;;;819.90;1408.00;;;;;;5025380;28;20478;-77
2022/08/31 11:04:27;;;;;;;9.48;4.97;;;;;;;;;;5035081;28;20021;-75
2022/08/31 11:07:05;;;;;;;7.40;4.78;;;844.80;1408.00;;;;;;5071037;28;20490;-75
2022/08/31 11:09:40;;;;;;;7.93;4.05;;;845.10;1433.60;;;;;;5071469;28;20028;-74
2022/08/31 11:12:10;;;;;;;10.93;4.90;;;845.10;1382.40;;;;;;5066374;28;20471;-77
2022/08/31 11:14:52;;;;;;;6.05;4.40;;;845.20;1408.00;;;;;;5071119;28;20028;-75
2022/08/31 11:17:31;;;;;;;9.30;4.40;;;845.40;1433.60;;;;;;5037565;28;20021;-76
2022/08/31 11:19:58;;;;;;;8.48;4.68;;;845.40;1356.80;;;;;;5058901;28;20036;-77
2022/08/31 11:22:49;;;;;;;11.38;4.88;;;845.40;1331.20;;;;;;5070793;28;20030;-76
2022/08/31 11:25:27;;;;;;;9.55;4.60;;;845.50;1331.20;;;;;;5007119;28;20408;-73
2022/08/31 11:28:11;;;;;;;7.20;4.47;;;845.40;1356.80;;;;;;5006789;28;20037;-75
2022/08/31 11:30:45;;;;;;;8.55;4.47;;;845.30;1356.80;;;;;;5007303;28;20041;-74
2022/08/31 11:33:18;;;;;;;6.68;4.32;;;845.60;1331.20;;;;;;4992705;28;20384;-74
2022/08/31 11:35:56;;;;;;;6.47;4.85;;;845.70;1280.00;;;;;;5009046;28;20152;-74
2022/08/31 11:38:50;;;;;;;8.63;4.60;;;870.40;1305.60;;;;;;4990965;28;20117;-74
2022/08/31 11:41:46;;;;;;;7.10;4.57;;;870.50;1382.40;;;;;;5009329;28;20018;-74
2022/08/31 11:44:38;;;;;;;8.30;4.60;;;870.50;1382.40;;;;;;4979616;28;20034;-75
2022/08/31 11:47:14;;;;;;;11.20;5.72;;;845.70;1356.80;;;;;;5007635;28;20546;-75
2022/08/31 11:49:45;;;;;;;8.30;4.70;;;870.40;1356.80;;;;;;5007314;28;20069;-76
2022/08/31 11:52:37;;;;;;;8.18;4.93;;;870.70;1356.80;;;;;;5009259;28;20121;-77
2022/08/31 11:55:44;;;;;;;13.68;5.00;;;870.60;1356.80;;;;;;5006201;28;20038;-77
2022/08/31 12:18:13;;;;;;;6.43;5.45;;;870.40;1331.20;;;;;;5103526;27;20438;-76
2022/08/31 12:24:23;;;;;;;8.80;4.85;;;819.90;1382.40;;;;;;5109248;28;20031;-76
2022/08/31 12:27:36;;;;;;;7.55;4.88;;;819.70;1408.00;;;;;;5107933;28;20032;-75
2022/08/31 12:30:20;;;;;;;8.68;4.88;;;845.10;1382.40;;;;;;5059638;28;20040;-76
2022/08/31 12:32:57;;;;;;;5.20;4.35;;;845.70;1382.40;;;;;;5065608;28;20045;-75
2022/08/31 12:35:25;;;;;;;7.18;4.63;;;845.70;1356.80;;;;;;5063827;28;20090;-77
2022/08/31 12:38:03;;;;;;;7.63;5.05;;;870.50;1331.20;;;;;;5063539;28;20055;-78
2022/08/31 12:40:50;;;;;;;5.85;5.07;;;870.60;1356.80;;;;;;5066034;28;20099;-76
2022/08/31 12:43:33;;;;;;;7.30;5.05;;;870.70;1382.40;;;;;;5054615;28;20382;-78
2022/08/31 12:46:01;;;;;;;8.57;5.05;;;845.70;1382.40;;;;;;5065194;28;20075;-74
2022/08/31 12:48:48;;;;;;;6.25;4.95;;;845.70;1408.00;;;;;;5033798;28;20064;-75
2022/08/31 12:51:36;;;;;;;6.78;5.07;;;845.70;1382.40;;;;;;5031758;28;20025;-75
2022/08/31 12:54:08;;;;;;;7.18;5.57;;;845.70;1331.20;;;;;;5028827;28;20033;-75
2022/08/31 12:56:40;;;;;;;9.50;6.95;;;870.50;1382.40;;;;;;5048254;28;20026;-75
2022/08/31 12:59:24;;;;;;;11.77;6.70;;;870.50;1408.00;;;;;;5045802;28;20103;-78
2022/08/31 13:01:50;;;;;;;14.70;10.20;;;870.60;1382.40;;;;;;5048184;28;20100;-75